GIA879 RKSI-WIII
Flight info
| Callsign | GIA879 |
|---|---|
| Flight time | 6h 36m |
| Altitude | 37000 |
| Route | BOPTA2Y BOPTA Z51 BEDES Y711 MUGUS Y742 SALMI Q11 POTIB M646 VJN P648 AMBOY W38 DENDY DCT WIII/24 |
| Aircraft | B77W/H-SADE1E2E3GHIJ1J3J5M1P2RWXY/LB1D1 |
Departure
| Time | 2026-05-04 07:27 |
|---|---|
| Airport | Incheon International Airport (RKSI) |
Arrival
| Time | 2026-05-04 14:04 |
|---|---|
| Airport | Soekarno-Hatta International Airport (WIII) |
| Time | Latitude | Longitude | Altitude | Speed | Heading |
|---|---|---|---|---|---|
| 2026-05-04 06:33 | 37.46248 | 126.43237 | 35 ft | 0 kts | 69° |
| 2026-05-04 07:15 | 37.46244 | 126.43224 | 35 ft | 2 kts | 70° |
| 2026-05-04 07:16 | 37.46241 | 126.43212 | 35 ft | 2 kts | 77° |
| 2026-05-04 07:16 | 37.46239 | 126.43188 | 35 ft | 2 kts | 89° |
| 2026-05-04 07:16 | 37.46240 | 126.43169 | 35 ft | 2 kts | 98° |
| 2026-05-04 07:16 | 37.46242 | 126.43150 | 35 ft | 2 kts | 106° |
| 2026-05-04 07:17 | 37.46247 | 126.43133 | 35 ft | 2 kts | 115° |
| 2026-05-04 07:17 | 37.46254 | 126.43116 | 35 ft | 2 kts | 123° |
| 2026-05-04 07:17 | 37.46263 | 126.43101 | 35 ft | 2 kts | 131° |
| 2026-05-04 07:17 | 37.46274 | 126.43088 | 35 ft | 2 kts | 140° |
| 2026-05-04 07:18 | 37.46282 | 126.43080 | 35 ft | 2 kts | 146° |
| 2026-05-04 07:18 | 37.46297 | 126.43070 | 35 ft | 1 kts | 154° |
| 2026-05-04 07:18 | 37.46298 | 126.43070 | 35 ft | 0 kts | 155° |
| 2026-05-04 07:19 | 37.46292 | 126.43072 | 35 ft | 3 kts | 155° |
| 2026-05-04 07:20 | 37.46253 | 126.43095 | 35 ft | 7 kts | 155° |
| 2026-05-04 07:20 | 37.46196 | 126.43130 | 35 ft | 10 kts | 150° |
| 2026-05-04 07:20 | 37.46130 | 126.43180 | 35 ft | 12 kts | 147° |
| 2026-05-04 07:20 | 37.46081 | 126.43221 | 35 ft | 13 kts | 143° |
| 2026-05-04 07:22 | 37.45445 | 126.43601 | 35 ft | 17 kts | 144° |
| 2026-05-04 07:22 | 37.45345 | 126.43691 | 35 ft | 17 kts | 143° |
| 2026-05-04 07:23 | 37.45212 | 126.43813 | 35 ft | 17 kts | 144° |
| 2026-05-04 07:23 | 37.45110 | 126.43905 | 35 ft | 18 kts | 144° |
| 2026-05-04 07:23 | 37.45005 | 126.43997 | 35 ft | 18 kts | 144° |
| 2026-05-04 07:23 | 37.44899 | 126.44090 | 35 ft | 18 kts | 144° |
| 2026-05-04 07:24 | 37.44828 | 126.44154 | 35 ft | 18 kts | 144° |
| 2026-05-04 07:24 | 37.44722 | 126.44250 | 35 ft | 19 kts | 144° |
| 2026-05-04 07:24 | 37.44590 | 126.44369 | 35 ft | 14 kts | 144° |
| 2026-05-04 07:24 | 37.44508 | 126.44407 | 35 ft | 11 kts | 200° |
| 2026-05-04 07:25 | 37.44454 | 126.44338 | 35 ft | 10 kts | 236° |
| 2026-05-04 07:26 | 37.44407 | 126.44112 | 35 ft | 0 kts | 325° |
| 2026-05-04 07:27 | 37.44653 | 126.43885 | 35 ft | 86 kts | 323° |
| 2026-05-04 07:27 | 37.45103 | 126.43491 | 36 ft | 144 kts | 326° |
| 2026-05-04 07:27 | 37.46458 | 126.42397 | 811 ft | 187 kts | 322° |
| 2026-05-04 07:28 | 37.47517 | 126.41530 | 1964 ft | 180 kts | 325° |
| 2026-05-04 07:28 | 37.48375 | 126.40331 | 2413 ft | 196 kts | 304° |
| 2026-05-04 07:28 | 37.49164 | 126.38865 | 2934 ft | 212 kts | 307° |
| 2026-05-04 07:28 | 37.49736 | 126.37835 | 3301 ft | 223 kts | 301° |
| 2026-05-04 07:29 | 37.50287 | 126.35928 | 3813 ft | 244 kts | 281° |
| 2026-05-04 07:29 | 37.50466 | 126.33032 | 4948 ft | 253 kts | 276° |
| 2026-05-04 07:29 | 37.50531 | 126.30821 | 5824 ft | 257 kts | 276° |
| 2026-05-04 07:29 | 37.50588 | 126.28567 | 6681 ft | 261 kts | 276° |
| 2026-05-04 07:30 | 37.50642 | 126.26299 | 7506 ft | 266 kts | 276° |
| 2026-05-04 07:30 | 37.50679 | 126.24766 | 8065 ft | 268 kts | 277° |
| 2026-05-04 07:30 | 37.50729 | 126.22396 | 8869 ft | 273 kts | 274° |
| 2026-05-04 07:30 | 37.50370 | 126.20030 | 9555 ft | 289 kts | 252° |
| 2026-05-04 07:31 | 37.48785 | 126.17184 | 10423 ft | 309 kts | 232° |
| 2026-05-04 07:31 | 37.47766 | 126.15910 | 10697 ft | 323 kts | 227° |
| 2026-05-04 07:33 | 37.29174 | 126.14003 | 14701 ft | 436 kts | 146° |
| 2026-05-04 07:33 | 37.26859 | 126.16416 | 15497 ft | 439 kts | 134° |
| 2026-05-04 07:33 | 37.25478 | 126.18341 | 16060 ft | 440 kts | 127° |
| 2026-05-04 07:33 | 37.23281 | 126.22632 | 17066 ft | 442 kts | 114° |
| 2026-05-04 07:34 | 37.22472 | 126.24957 | 17516 ft | 444 kts | 108° |
| 2026-05-04 07:34 | 37.21462 | 126.29956 | 18450 ft | 446 kts | 96° |
| 2026-05-04 07:34 | 37.20896 | 126.33781 | 18959 ft | 455 kts | 102° |
| 2026-05-04 07:34 | 37.19877 | 126.37563 | 19020 ft | 456 kts | 111° |
| 2026-05-04 07:35 | 37.18405 | 126.41051 | 19032 ft | 456 kts | 122° |
| 2026-05-04 07:35 | 37.17142 | 126.43221 | 19041 ft | 458 kts | 129° |
| 2026-05-04 07:35 | 37.14937 | 126.46054 | 19031 ft | 460 kts | 139° |
| 2026-05-04 07:35 | 37.11389 | 126.49068 | 19041 ft | 459 kts | 154° |
| 2026-05-04 07:36 | 37.08460 | 126.50594 | 19024 ft | 459 kts | 163° |
| 2026-05-04 07:36 | 37.05317 | 126.51789 | 19433 ft | 470 kts | 166° |
| 2026-05-04 07:38 | 36.82872 | 126.58580 | 24346 ft | 489 kts | 170° |
| 2026-05-04 07:38 | 36.79538 | 126.59651 | 24939 ft | 492 kts | 170° |
| 2026-05-04 07:38 | 36.76218 | 126.60725 | 25495 ft | 496 kts | 170° |
| 2026-05-04 07:38 | 36.72866 | 126.61812 | 26068 ft | 499 kts | 170° |
| 2026-05-04 07:39 | 36.69460 | 126.62942 | 26645 ft | 502 kts | 170° |
| 2026-05-04 07:39 | 36.67234 | 126.63686 | 27051 ft | 503 kts | 170° |
| 2026-05-04 07:39 | 36.62728 | 126.65196 | 27840 ft | 505 kts | 171° |
| 2026-05-04 07:39 | 36.60429 | 126.65965 | 28166 ft | 508 kts | 171° |
| 2026-05-04 07:40 | 36.57000 | 126.67111 | 28572 ft | 513 kts | 172° |
| 2026-05-04 07:40 | 36.53507 | 126.68278 | 29031 ft | 517 kts | 172° |
| 2026-05-04 07:40 | 36.48864 | 126.69832 | 29810 ft | 517 kts | 172° |
| 2026-05-04 07:40 | 36.45417 | 126.70985 | 30533 ft | 513 kts | 172° |
| 2026-05-04 07:41 | 36.43140 | 126.71748 | 31025 ft | 508 kts | 173° |
| 2026-05-04 07:41 | 36.39722 | 126.72894 | 31788 ft | 501 kts | 173° |
| 2026-05-04 07:41 | 36.36406 | 126.74006 | 32411 ft | 497 kts | 173° |
| 2026-05-04 07:41 | 36.31932 | 126.75519 | 33077 ft | 494 kts | 174° |
| 2026-05-04 07:42 | 36.28590 | 126.76648 | 33540 ft | 492 kts | 174° |
| 2026-05-04 07:42 | 36.26393 | 126.77389 | 33882 ft | 490 kts | 174° |
| 2026-05-04 07:42 | 36.23104 | 126.78500 | 34355 ft | 487 kts | 174° |
| 2026-05-04 07:42 | 36.19844 | 126.79598 | 34748 ft | 485 kts | 175° |
| 2026-05-04 07:43 | 36.15501 | 126.80670 | 35220 ft | 470 kts | 185° |
| 2026-05-04 07:43 | 36.13322 | 126.80804 | 35396 ft | 463 kts | 191° |
| 2026-05-04 07:43 | 36.10139 | 126.80592 | 35699 ft | 456 kts | 194° |
| 2026-05-04 07:43 | 36.05908 | 126.80154 | 36019 ft | 458 kts | 194° |
| 2026-05-04 07:44 | 36.00602 | 126.79592 | 36022 ft | 456 kts | 194° |
| 2026-05-04 07:44 | 35.93200 | 126.78800 | 36032 ft | 457 kts | 195° |
| 2026-05-04 07:45 | 35.87952 | 126.78237 | 36035 ft | 453 kts | 195° |
| 2026-05-04 07:45 | 35.81652 | 126.77556 | 36037 ft | 455 kts | 195° |
| 2026-05-04 07:46 | 35.75351 | 126.76878 | 36048 ft | 449 kts | 195° |
| 2026-05-04 07:46 | 35.68111 | 126.76097 | 36043 ft | 448 kts | 195° |
| 2026-05-04 07:47 | 35.61847 | 126.75420 | 36047 ft | 449 kts | 195° |
| 2026-05-04 07:49 | 35.37051 | 126.72760 | 36045 ft | 446 kts | 196° |
| 2026-05-04 07:49 | 35.31896 | 126.72209 | 36046 ft | 445 kts | 196° |
| 2026-05-04 07:50 | 35.24681 | 126.71440 | 36049 ft | 444 kts | 196° |
| 2026-05-04 07:50 | 35.19560 | 126.70897 | 36044 ft | 439 kts | 196° |
| 2026-05-04 07:51 | 35.12428 | 126.70137 | 36052 ft | 441 kts | 197° |
| 2026-05-04 07:51 | 35.06330 | 126.69490 | 36050 ft | 439 kts | 197° |
| 2026-05-04 07:52 | 35.01217 | 126.68948 | 36055 ft | 438 kts | 197° |
| 2026-05-04 07:52 | 34.95164 | 126.68307 | 36056 ft | 437 kts | 197° |
| 2026-05-04 07:54 | 34.70937 | 126.65746 | 36063 ft | 436 kts | 197° |
| 2026-05-04 07:55 | 34.64910 | 126.65113 | 36062 ft | 435 kts | 197° |
| 2026-05-04 07:55 | 34.57864 | 126.64373 | 36063 ft | 436 kts | 197° |
| 2026-05-04 07:56 | 34.51854 | 126.63744 | 36063 ft | 431 kts | 197° |
| 2026-05-04 07:56 | 34.45790 | 126.63107 | 36061 ft | 434 kts | 197° |
| 2026-05-04 07:57 | 34.39801 | 126.62481 | 36062 ft | 435 kts | 197° |
| 2026-05-04 07:57 | 34.34775 | 126.61958 | 36061 ft | 432 kts | 197° |
| 2026-05-04 07:58 | 34.27725 | 126.61222 | 36064 ft | 435 kts | 197° |
| 2026-05-04 07:58 | 34.21732 | 126.60600 | 36063 ft | 430 kts | 197° |
| 2026-05-04 07:59 | 34.16738 | 126.60078 | 36069 ft | 433 kts | 197° |
| 2026-05-04 07:59 | 34.09721 | 126.59349 | 36063 ft | 429 kts | 197° |
| 2026-05-04 08:00 | 34.04739 | 126.58829 | 36065 ft | 431 kts | 197° |
| 2026-05-04 08:02 | 33.80113 | 126.54931 | 37089 ft | 414 kts | 211° |
| 2026-05-04 08:02 | 33.74674 | 126.52583 | 37055 ft | 413 kts | 211° |
| 2026-05-04 08:03 | 33.69255 | 126.50237 | 37191 ft | 415 kts | 211° |
| 2026-05-04 08:03 | 33.66533 | 126.49061 | 37088 ft | 411 kts | 211° |
| 2026-05-04 08:03 | 33.63823 | 126.47890 | 37082 ft | 413 kts | 211° |
| 2026-05-04 08:04 | 33.58416 | 126.45553 | 37083 ft | 412 kts | 210° |
| 2026-05-04 08:04 | 33.53007 | 126.43218 | 37080 ft | 412 kts | 210° |
| 2026-05-04 08:05 | 33.48579 | 126.41316 | 36464 ft | 401 kts | 211° |
| 2026-05-04 08:05 | 33.45115 | 126.39823 | 36097 ft | 398 kts | 211° |
| 2026-05-04 08:05 | 33.42503 | 126.38695 | 36083 ft | 402 kts | 211° |
| 2026-05-04 08:06 | 33.37175 | 126.36397 | 36075 ft | 411 kts | 210° |
| 2026-05-04 08:06 | 33.32681 | 126.34467 | 36088 ft | 410 kts | 210° |
| 2026-05-04 08:08 | 33.10099 | 126.24801 | 36090 ft | 413 kts | 210° |
| 2026-05-04 08:11 | 32.85677 | 126.14345 | 36100 ft | 415 kts | 210° |
| 2026-05-04 08:11 | 32.77542 | 126.10863 | 36100 ft | 415 kts | 210° |
| 2026-05-04 08:12 | 32.72115 | 126.08544 | 36101 ft | 413 kts | 210° |
| 2026-05-04 08:12 | 32.66702 | 126.06234 | 36102 ft | 412 kts | 210° |
| 2026-05-04 08:13 | 32.61286 | 126.03925 | 36105 ft | 412 kts | 210° |
| 2026-05-04 08:13 | 32.55864 | 126.01617 | 36102 ft | 414 kts | 210° |
| 2026-05-04 08:14 | 32.50443 | 125.99312 | 36109 ft | 411 kts | 210° |
| 2026-05-04 08:16 | 32.28791 | 125.90144 | 36101 ft | 413 kts | 210° |
| 2026-05-04 08:16 | 32.24282 | 125.88242 | 36104 ft | 412 kts | 210° |
| 2026-05-04 08:17 | 32.17967 | 125.85580 | 36103 ft | 413 kts | 210° |
| 2026-05-04 08:17 | 32.12549 | 125.83301 | 36104 ft | 411 kts | 210° |
| 2026-05-04 08:19 | 31.91860 | 125.74607 | 36103 ft | 409 kts | 210° |
| 2026-05-04 08:20 | 31.85572 | 125.71964 | 36112 ft | 411 kts | 210° |
| 2026-05-04 08:20 | 31.80182 | 125.69703 | 36112 ft | 413 kts | 210° |
| 2026-05-04 08:21 | 31.75696 | 125.67825 | 36107 ft | 411 kts | 211° |
| 2026-05-04 08:21 | 31.69373 | 125.65177 | 36108 ft | 414 kts | 210° |
| 2026-05-04 08:22 | 31.63987 | 125.62924 | 36107 ft | 410 kts | 210° |
| 2026-05-04 08:24 | 31.42396 | 125.53889 | 36108 ft | 414 kts | 211° |
| 2026-05-04 08:24 | 31.37858 | 125.51993 | 36102 ft | 409 kts | 211° |
| 2026-05-04 08:25 | 31.31570 | 125.49365 | 36101 ft | 412 kts | 211° |
| 2026-05-04 08:25 | 31.26177 | 125.47116 | 36108 ft | 411 kts | 210° |
| 2026-05-04 08:27 | 31.05586 | 125.38551 | 36104 ft | 411 kts | 211° |
| 2026-05-04 08:28 | 30.99306 | 125.35949 | 36104 ft | 409 kts | 211° |
| 2026-05-04 08:28 | 30.93907 | 125.33712 | 36132 ft | 411 kts | 211° |
| 2026-05-04 08:29 | 30.89433 | 125.31862 | 36128 ft | 408 kts | 210° |
| 2026-05-04 08:31 | 30.67905 | 125.22981 | 36142 ft | 413 kts | 210° |
| 2026-05-04 08:33 | 30.46224 | 125.14081 | 36139 ft | 414 kts | 211° |
| 2026-05-04 08:35 | 30.24382 | 125.05153 | 36134 ft | 414 kts | 211° |
| 2026-05-04 08:35 | 30.18918 | 125.02924 | 36133 ft | 418 kts | 210° |
| 2026-05-04 08:37 | 29.98670 | 124.94681 | 36130 ft | 422 kts | 210° |
| 2026-05-04 08:38 | 29.93195 | 124.92339 | 36122 ft | 415 kts | 211° |
| 2026-05-04 08:38 | 29.87719 | 124.89988 | 36127 ft | 422 kts | 211° |
| 2026-05-04 08:40 | 29.65866 | 124.80681 | 36126 ft | 417 kts | 211° |
| 2026-05-04 08:41 | 29.60415 | 124.78368 | 36124 ft | 416 kts | 212° |
| 2026-05-04 08:41 | 29.55869 | 124.76440 | 36129 ft | 417 kts | 211° |
| 2026-05-04 08:42 | 29.49517 | 124.73749 | 36130 ft | 419 kts | 212° |
| 2026-05-04 08:42 | 29.44934 | 124.71810 | 36120 ft | 418 kts | 211° |
| 2026-05-04 08:43 | 29.39493 | 124.69513 | 36117 ft | 416 kts | 211° |
| 2026-05-04 08:43 | 29.34026 | 124.67203 | 36121 ft | 419 kts | 212° |
| 2026-05-04 08:44 | 29.27690 | 124.64535 | 36122 ft | 414 kts | 212° |
| 2026-05-04 08:46 | 29.06767 | 124.55737 | 36120 ft | 417 kts | 212° |
| 2026-05-04 08:46 | 29.01334 | 124.53460 | 36115 ft | 417 kts | 212° |
| 2026-05-04 08:47 | 28.95085 | 124.50549 | 36140 ft | 408 kts | 219° |
| 2026-05-04 08:47 | 28.91157 | 124.47594 | 36119 ft | 404 kts | 225° |
| 2026-05-04 08:48 | 28.86601 | 124.43945 | 36123 ft | 397 kts | 224° |
| 2026-05-04 08:48 | 28.81303 | 124.39695 | 36122 ft | 399 kts | 225° |
| 2026-05-04 08:49 | 28.77497 | 124.36643 | 36121 ft | 401 kts | 225° |
| 2026-05-04 08:50 | 28.61485 | 124.23832 | 36143 ft | 400 kts | 224° |
| 2026-05-04 08:51 | 28.56924 | 124.20189 | 36140 ft | 404 kts | 224° |
| 2026-05-04 08:51 | 28.52301 | 124.16502 | 36142 ft | 403 kts | 224° |
| 2026-05-04 08:52 | 28.47693 | 124.12831 | 36138 ft | 407 kts | 224° |
| 2026-05-04 08:52 | 28.43091 | 124.09171 | 36137 ft | 401 kts | 224° |
| 2026-05-04 08:54 | 28.23555 | 123.96126 | 36132 ft | 418 kts | 213° |
| 2026-05-04 08:55 | 28.18147 | 123.93547 | 36132 ft | 423 kts | 214° |
| 2026-05-04 08:55 | 28.11833 | 123.90538 | 36131 ft | 420 kts | 213° |
| 2026-05-04 09:01 | 27.56519 | 123.62457 | 36128 ft | 411 kts | 224° |
| 2026-05-04 09:01 | 27.51835 | 123.58663 | 36126 ft | 412 kts | 224° |
| 2026-05-04 09:02 | 27.47195 | 123.54908 | 36124 ft | 411 kts | 224° |
| 2026-05-04 09:02 | 27.42523 | 123.51128 | 36122 ft | 412 kts | 224° |
| 2026-05-04 09:03 | 27.37841 | 123.47344 | 36123 ft | 413 kts | 224° |
| 2026-05-04 09:03 | 27.32418 | 123.42968 | 36119 ft | 409 kts | 225° |
| 2026-05-04 09:04 | 27.28545 | 123.39841 | 36119 ft | 413 kts | 224° |
| 2026-05-04 09:04 | 27.23854 | 123.36062 | 36118 ft | 412 kts | 224° |
| 2026-05-04 09:05 | 27.19211 | 123.32324 | 36143 ft | 413 kts | 224° |
| 2026-05-04 09:05 | 27.14513 | 123.28547 | 36140 ft | 412 kts | 224° |
| 2026-05-04 09:06 | 27.09843 | 123.24796 | 36138 ft | 415 kts | 224° |
| 2026-05-04 09:08 | 26.91036 | 123.09728 | 36134 ft | 416 kts | 224° |
| 2026-05-04 09:08 | 26.85514 | 123.05315 | 36135 ft | 418 kts | 223° |
| 2026-05-04 09:09 | 26.80769 | 123.01530 | 36133 ft | 417 kts | 224° |
| 2026-05-04 09:09 | 26.76046 | 122.97768 | 36133 ft | 417 kts | 223° |
| 2026-05-04 09:10 | 26.71288 | 122.93991 | 36131 ft | 419 kts | 223° |
| 2026-05-04 09:10 | 26.66558 | 122.90241 | 36128 ft | 416 kts | 223° |
| 2026-05-04 09:11 | 26.62592 | 122.87095 | 36132 ft | 422 kts | 223° |
| 2026-05-04 09:11 | 26.57794 | 122.83299 | 36127 ft | 416 kts | 223° |
| 2026-05-04 09:12 | 26.53044 | 122.79539 | 36127 ft | 420 kts | 224° |
| 2026-05-04 09:14 | 26.33980 | 122.64450 | 36122 ft | 420 kts | 223° |
| 2026-05-04 09:14 | 26.28402 | 122.60047 | 36124 ft | 419 kts | 223° |
| 2026-05-04 09:15 | 26.24404 | 122.56895 | 36122 ft | 421 kts | 223° |
| 2026-05-04 09:15 | 26.18815 | 122.52492 | 36118 ft | 421 kts | 223° |
| 2026-05-04 09:17 | 25.97987 | 122.36158 | 36113 ft | 425 kts | 223° |
| 2026-05-04 09:18 | 25.93124 | 122.32356 | 36129 ft | 422 kts | 223° |
| 2026-05-04 09:18 | 25.88313 | 122.28598 | 36132 ft | 425 kts | 222° |
| 2026-05-04 09:19 | 25.82626 | 122.24161 | 36133 ft | 424 kts | 222° |
| 2026-05-04 09:19 | 25.77806 | 122.20406 | 36133 ft | 425 kts | 222° |
| 2026-05-04 09:20 | 25.73754 | 122.17248 | 36131 ft | 429 kts | 222° |
| 2026-05-04 09:20 | 25.68893 | 122.13469 | 36134 ft | 427 kts | 222° |
| 2026-05-04 09:21 | 25.63866 | 122.09937 | 36104 ft | 432 kts | 213° |
| 2026-05-04 09:21 | 25.56989 | 122.07523 | 36094 ft | 455 kts | 197° |
| 2026-05-04 09:22 | 25.51691 | 122.07155 | 36122 ft | 462 kts | 191° |
| 2026-05-04 09:22 | 25.44113 | 122.06969 | 36127 ft | 467 kts | 191° |
| 2026-05-04 09:23 | 25.38704 | 122.06800 | 36119 ft | 463 kts | 191° |
| 2026-05-04 09:23 | 25.32262 | 122.06574 | 36119 ft | 467 kts | 191° |
| 2026-05-04 09:25 | 25.06390 | 122.05583 | 36111 ft | 463 kts | 191° |
| 2026-05-04 09:26 | 24.98884 | 122.05293 | 36106 ft | 464 kts | 190° |
| 2026-05-04 09:26 | 24.92382 | 122.05039 | 36107 ft | 465 kts | 190° |
| 2026-05-04 09:27 | 24.85895 | 122.04787 | 36107 ft | 466 kts | 190° |
| 2026-05-04 09:27 | 24.80481 | 122.04578 | 36108 ft | 465 kts | 190° |
| 2026-05-04 09:28 | 24.72947 | 122.04285 | 36103 ft | 466 kts | 191° |
| 2026-05-04 09:28 | 24.67521 | 122.04074 | 36104 ft | 466 kts | 190° |
| 2026-05-04 09:29 | 24.60999 | 122.03822 | 36107 ft | 466 kts | 190° |
| 2026-05-04 09:29 | 24.54507 | 122.03569 | 36105 ft | 470 kts | 190° |
| 2026-05-04 09:30 | 24.46910 | 122.03277 | 36099 ft | 469 kts | 190° |
| 2026-05-04 09:30 | 24.40341 | 122.03022 | 36102 ft | 470 kts | 190° |
| 2026-05-04 09:31 | 24.33873 | 122.02286 | 36126 ft | 460 kts | 201° |
| 2026-05-04 09:31 | 24.28765 | 122.00688 | 36101 ft | 456 kts | 204° |
| 2026-05-04 09:32 | 24.22689 | 121.98712 | 36096 ft | 458 kts | 204° |
| 2026-05-04 09:34 | 23.98226 | 121.90749 | 36084 ft | 459 kts | 204° |
| 2026-05-04 09:34 | 23.91039 | 121.88413 | 36082 ft | 460 kts | 204° |
| 2026-05-04 09:35 | 23.85921 | 121.86752 | 36081 ft | 460 kts | 204° |
| 2026-05-04 09:35 | 23.79743 | 121.84748 | 36070 ft | 460 kts | 204° |
| 2026-05-04 09:37 | 23.55134 | 121.76784 | 36057 ft | 460 kts | 203° |
| 2026-05-04 09:38 | 23.49007 | 121.74799 | 36056 ft | 461 kts | 204° |
| 2026-05-04 09:38 | 23.42815 | 121.72794 | 36054 ft | 462 kts | 204° |
| 2026-05-04 09:39 | 23.36638 | 121.70798 | 36051 ft | 464 kts | 203° |
| 2026-05-04 09:39 | 23.29414 | 121.68472 | 36052 ft | 462 kts | 203° |
| 2026-05-04 09:40 | 23.24275 | 121.66818 | 36049 ft | 462 kts | 203° |
| 2026-05-04 09:40 | 23.18103 | 121.64832 | 36049 ft | 462 kts | 203° |
| 2026-05-04 09:42 | 22.93259 | 121.56863 | 36035 ft | 466 kts | 203° |
| 2026-05-04 09:43 | 22.87026 | 121.54872 | 36033 ft | 465 kts | 203° |
| 2026-05-04 09:43 | 22.80823 | 121.52893 | 36036 ft | 465 kts | 203° |
| 2026-05-04 09:44 | 22.73550 | 121.50574 | 36034 ft | 465 kts | 202° |
| 2026-05-04 09:46 | 22.49377 | 121.40706 | 36023 ft | 462 kts | 208° |
| 2026-05-04 09:46 | 22.44388 | 121.38513 | 36019 ft | 463 kts | 208° |
| 2026-05-04 09:47 | 22.37398 | 121.35446 | 36014 ft | 463 kts | 208° |
| 2026-05-04 09:49 | 22.14466 | 121.25407 | 36016 ft | 462 kts | 207° |
| 2026-05-04 09:51 | 21.93432 | 121.16228 | 36007 ft | 465 kts | 207° |
| 2026-05-04 09:51 | 21.87402 | 121.13601 | 36011 ft | 464 kts | 207° |
| 2026-05-04 09:52 | 21.81425 | 121.11000 | 36006 ft | 464 kts | 207° |
| 2026-05-04 09:52 | 21.74413 | 121.07952 | 36003 ft | 464 kts | 207° |
| 2026-05-04 09:53 | 21.68379 | 121.05331 | 36000 ft | 466 kts | 207° |
| 2026-05-04 09:53 | 21.62366 | 121.02722 | 35999 ft | 466 kts | 207° |
| 2026-05-04 09:54 | 21.57328 | 121.00538 | 35994 ft | 464 kts | 207° |
| 2026-05-04 09:54 | 21.50298 | 120.97492 | 35990 ft | 467 kts | 207° |
| 2026-05-04 09:55 | 21.44232 | 120.94868 | 35987 ft | 465 kts | 207° |
| 2026-05-04 09:55 | 21.38207 | 120.92262 | 35984 ft | 466 kts | 207° |
| 2026-05-04 09:56 | 21.32161 | 120.89651 | 35979 ft | 467 kts | 206° |
| 2026-05-04 09:56 | 21.26144 | 120.87054 | 35975 ft | 468 kts | 206° |
| 2026-05-04 09:57 | 21.20045 | 120.84425 | 35975 ft | 467 kts | 206° |
| 2026-05-04 09:57 | 21.14994 | 120.82248 | 35974 ft | 469 kts | 206° |
| 2026-05-04 09:58 | 21.07941 | 120.79212 | 35971 ft | 468 kts | 206° |
| 2026-05-04 09:58 | 21.01844 | 120.76646 | 35947 ft | 471 kts | 202° |
| 2026-05-04 10:00 | 20.79775 | 120.74114 | 35957 ft | 479 kts | 189° |
| 2026-05-04 10:00 | 20.76454 | 120.73844 | 35958 ft | 479 kts | 189° |
| 2026-05-04 10:04 | 20.28605 | 120.69920 | 35936 ft | 481 kts | 189° |
| 2026-05-04 10:04 | 20.22995 | 120.69460 | 35935 ft | 481 kts | 189° |
| 2026-05-04 10:05 | 20.15181 | 120.68821 | 35934 ft | 480 kts | 189° |
| 2026-05-04 10:05 | 20.08447 | 120.68270 | 35929 ft | 481 kts | 189° |
| 2026-05-04 10:06 | 20.01744 | 120.67722 | 35928 ft | 481 kts | 189° |
| 2026-05-04 10:06 | 19.95084 | 120.67178 | 35925 ft | 481 kts | 189° |
| 2026-05-04 10:08 | 19.71564 | 120.65262 | 35923 ft | 482 kts | 189° |
| 2026-05-04 10:08 | 19.65959 | 120.64806 | 35925 ft | 482 kts | 189° |
| 2026-05-04 10:09 | 19.58126 | 120.64169 | 35924 ft | 482 kts | 188° |
| 2026-05-04 10:09 | 19.51452 | 120.63628 | 35921 ft | 482 kts | 189° |
| 2026-05-04 10:10 | 19.44655 | 120.63076 | 35917 ft | 483 kts | 189° |
| 2026-05-04 10:10 | 19.39046 | 120.62620 | 35916 ft | 483 kts | 189° |
| 2026-05-04 10:11 | 19.32299 | 120.62073 | 35908 ft | 483 kts | 188° |
| 2026-05-04 10:11 | 19.24483 | 120.61441 | 35908 ft | 483 kts | 189° |
| 2026-05-04 10:12 | 19.18877 | 120.60987 | 35903 ft | 484 kts | 188° |
| 2026-05-04 10:12 | 19.11010 | 120.60352 | 35901 ft | 483 kts | 189° |
| 2026-05-04 10:13 | 19.05393 | 120.59898 | 35895 ft | 483 kts | 188° |
| 2026-05-04 10:13 | 18.97558 | 120.59266 | 35886 ft | 484 kts | 188° |
| 2026-05-04 10:14 | 18.90801 | 120.58721 | 35893 ft | 484 kts | 188° |
| 2026-05-04 10:16 | 18.63785 | 120.56548 | 35908 ft | 485 kts | 188° |
| 2026-05-04 10:16 | 18.58166 | 120.56097 | 35908 ft | 486 kts | 188° |
| 2026-05-04 10:17 | 18.51363 | 120.55551 | 35908 ft | 486 kts | 188° |
| 2026-05-04 10:19 | 18.24280 | 120.53382 | 35898 ft | 487 kts | 188° |
| 2026-05-04 10:19 | 18.17469 | 120.52837 | 35891 ft | 487 kts | 188° |
| 2026-05-04 10:20 | 18.10739 | 120.52069 | 35894 ft | 486 kts | 191° |
| 2026-05-04 10:20 | 18.02865 | 120.51112 | 35888 ft | 486 kts | 190° |
| 2026-05-04 10:21 | 17.96125 | 120.50302 | 35891 ft | 487 kts | 190° |
| 2026-05-04 10:21 | 17.89403 | 120.49500 | 35898 ft | 487 kts | 190° |
| 2026-05-04 10:22 | 17.80384 | 120.48429 | 35897 ft | 486 kts | 190° |
| 2026-05-04 10:23 | 17.72484 | 120.47493 | 35924 ft | 487 kts | 190° |
| 2026-05-04 10:25 | 17.45489 | 120.44305 | 35943 ft | 487 kts | 190° |
| 2026-05-04 10:25 | 17.38759 | 120.43513 | 35929 ft | 487 kts | 190° |
| 2026-05-04 10:26 | 17.33115 | 120.42848 | 35930 ft | 487 kts | 190° |
| 2026-05-04 10:26 | 17.25257 | 120.41924 | 35948 ft | 487 kts | 190° |
| 2026-05-04 10:27 | 17.18509 | 120.41130 | 35946 ft | 488 kts | 190° |
| 2026-05-04 10:27 | 17.11724 | 120.40332 | 35936 ft | 487 kts | 190° |
| 2026-05-04 10:28 | 17.04957 | 120.39537 | 35960 ft | 487 kts | 190° |
| 2026-05-04 10:28 | 16.98223 | 120.38747 | 35958 ft | 487 kts | 190° |
| 2026-05-04 10:29 | 16.92571 | 120.38084 | 35943 ft | 487 kts | 190° |
| 2026-05-04 10:29 | 16.84704 | 120.37161 | 35968 ft | 488 kts | 190° |
| 2026-05-04 10:30 | 16.78997 | 120.36492 | 35960 ft | 488 kts | 190° |
| 2026-05-04 10:30 | 16.71058 | 120.36451 | 35924 ft | 493 kts | 174° |
| 2026-05-04 10:31 | 16.64363 | 120.38268 | 35951 ft | 497 kts | 167° |
| 2026-05-04 10:32 | 16.42231 | 120.45010 | 35991 ft | 495 kts | 167° |
| 2026-05-04 10:33 | 16.34477 | 120.47354 | 35969 ft | 496 kts | 167° |
| 2026-05-04 10:33 | 16.28922 | 120.49030 | 35958 ft | 495 kts | 167° |
| 2026-05-04 10:34 | 16.22231 | 120.51047 | 35942 ft | 496 kts | 167° |
| 2026-05-04 10:34 | 16.14480 | 120.53381 | 35934 ft | 495 kts | 167° |
| 2026-05-04 10:35 | 16.07857 | 120.55374 | 35928 ft | 495 kts | 167° |
| 2026-05-04 10:35 | 16.01235 | 120.57365 | 35914 ft | 494 kts | 167° |
| 2026-05-04 10:36 | 15.95683 | 120.59032 | 35902 ft | 495 kts | 167° |
| 2026-05-04 10:36 | 15.89050 | 120.61024 | 35905 ft | 494 kts | 167° |
| 2026-05-04 10:37 | 15.81331 | 120.63339 | 35905 ft | 493 kts | 167° |
| 2026-05-04 10:37 | 15.74719 | 120.65321 | 35903 ft | 493 kts | 167° |
| 2026-05-04 10:39 | 15.51622 | 120.72197 | 35885 ft | 491 kts | 167° |
| 2026-05-04 10:40 | 15.45029 | 120.74156 | 35886 ft | 493 kts | 167° |
| 2026-05-04 10:40 | 15.38441 | 120.76121 | 35884 ft | 492 kts | 167° |
| 2026-05-04 10:41 | 15.32961 | 120.77755 | 35879 ft | 492 kts | 167° |
| 2026-05-04 10:41 | 15.25267 | 120.80047 | 35877 ft | 491 kts | 167° |
| 2026-05-04 10:42 | 15.18673 | 120.82010 | 35880 ft | 491 kts | 167° |
| 2026-05-04 10:42 | 15.13189 | 120.83641 | 35880 ft | 491 kts | 167° |
| 2026-05-04 10:43 | 15.06588 | 120.85603 | 35875 ft | 490 kts | 167° |
| 2026-05-04 10:45 | 14.79269 | 120.93710 | 35872 ft | 490 kts | 167° |
| 2026-05-04 10:45 | 14.73787 | 120.95335 | 35879 ft | 490 kts | 167° |
| 2026-05-04 10:46 | 14.66126 | 120.97603 | 35884 ft | 490 kts | 167° |
| 2026-05-04 10:46 | 14.59507 | 120.99561 | 35894 ft | 490 kts | 167° |
| 2026-05-04 10:47 | 14.52793 | 121.00579 | 35916 ft | 486 kts | 184° |
| 2026-05-04 10:47 | 14.47230 | 120.99757 | 35918 ft | 482 kts | 199° |
| 2026-05-04 10:49 | 14.22740 | 120.88485 | 35923 ft | 480 kts | 207° |
| 2026-05-04 10:50 | 14.16686 | 120.85564 | 35923 ft | 480 kts | 207° |
| 2026-05-04 10:52 | 13.92339 | 120.73797 | 35899 ft | 482 kts | 207° |
| 2026-05-04 10:52 | 13.86272 | 120.70866 | 35900 ft | 481 kts | 207° |
| 2026-05-04 10:54 | 13.61959 | 120.59134 | 35913 ft | 481 kts | 207° |
| 2026-05-04 10:56 | 13.36605 | 120.46928 | 35923 ft | 483 kts | 207° |
| 2026-05-04 10:57 | 13.31531 | 120.44490 | 35911 ft | 482 kts | 207° |
| 2026-05-04 10:57 | 13.25427 | 120.41557 | 35896 ft | 482 kts | 207° |
| 2026-05-04 10:58 | 13.19338 | 120.38633 | 35886 ft | 483 kts | 207° |
| 2026-05-04 10:58 | 13.12176 | 120.35196 | 35877 ft | 483 kts | 207° |
| 2026-05-04 10:59 | 13.07054 | 120.32739 | 35886 ft | 485 kts | 207° |
| 2026-05-04 10:59 | 13.00953 | 120.29814 | 35896 ft | 485 kts | 206° |
| 2026-05-04 11:00 | 12.94808 | 120.26869 | 35898 ft | 485 kts | 206° |
| 2026-05-04 11:02 | 12.69322 | 120.14676 | 35892 ft | 482 kts | 206° |
| 2026-05-04 11:05 | 12.23556 | 119.92847 | 35895 ft | 484 kts | 206° |
| 2026-05-04 11:06 | 12.17418 | 119.89925 | 35892 ft | 481 kts | 205° |
| 2026-05-04 11:06 | 12.11327 | 119.87028 | 35890 ft | 483 kts | 205° |
| 2026-05-04 11:10 | 11.68502 | 119.66702 | 35871 ft | 482 kts | 205° |
| 2026-05-04 11:12 | 11.43853 | 119.55271 | 35874 ft | 482 kts | 205° |
| 2026-05-04 11:12 | 11.38742 | 119.52903 | 35877 ft | 483 kts | 205° |
| 2026-05-04 11:13 | 11.32611 | 119.50062 | 35887 ft | 482 kts | 205° |
| 2026-05-04 11:13 | 11.25457 | 119.46749 | 35895 ft | 483 kts | 205° |
| 2026-05-04 11:16 | 10.94689 | 119.32521 | 35888 ft | 485 kts | 204° |
| 2026-05-04 11:16 | 10.88507 | 119.29665 | 35889 ft | 484 kts | 204° |
| 2026-05-04 11:17 | 10.82372 | 119.26834 | 35887 ft | 484 kts | 204° |
| 2026-05-04 11:19 | 10.58734 | 119.15935 | 35888 ft | 485 kts | 204° |
| 2026-05-04 11:19 | 10.51543 | 119.12623 | 35887 ft | 485 kts | 204° |
| 2026-05-04 11:20 | 10.45398 | 119.09794 | 35888 ft | 486 kts | 204° |
| 2026-05-04 11:20 | 10.39179 | 119.06932 | 35890 ft | 486 kts | 204° |
| 2026-05-04 11:22 | 10.15405 | 118.96004 | 35894 ft | 487 kts | 204° |
| 2026-05-04 11:23 | 10.09196 | 118.93153 | 35888 ft | 487 kts | 204° |
| 2026-05-04 11:25 | 9.87517 | 118.83207 | 35898 ft | 487 kts | 204° |
| 2026-05-04 11:25 | 9.81315 | 118.80364 | 35898 ft | 487 kts | 204° |
| 2026-05-04 11:27 | 9.54602 | 118.62896 | 35905 ft | 489 kts | 216° |
| 2026-05-04 11:28 | 9.49061 | 118.58867 | 35908 ft | 489 kts | 216° |
| 2026-05-04 11:28 | 9.44453 | 118.55518 | 35909 ft | 489 kts | 216° |
| 2026-05-04 11:29 | 9.38921 | 118.51498 | 35904 ft | 489 kts | 216° |
| 2026-05-04 11:29 | 9.32420 | 118.46777 | 35903 ft | 489 kts | 216° |
| 2026-05-04 11:33 | 8.93488 | 118.18601 | 35885 ft | 490 kts | 215° |
| 2026-05-04 11:33 | 8.88839 | 118.15253 | 35888 ft | 490 kts | 215° |
| 2026-05-04 11:34 | 8.82371 | 118.10597 | 35888 ft | 491 kts | 215° |
| 2026-05-04 11:34 | 8.76790 | 118.06580 | 35883 ft | 492 kts | 215° |
| 2026-05-04 11:35 | 8.71208 | 118.02565 | 35881 ft | 492 kts | 215° |
| 2026-05-04 11:35 | 8.66535 | 117.99204 | 35882 ft | 492 kts | 215° |
| 2026-05-04 11:36 | 8.60016 | 117.94518 | 35877 ft | 491 kts | 215° |
| 2026-05-04 11:36 | 8.55389 | 117.91193 | 35876 ft | 491 kts | 215° |
| 2026-05-04 11:37 | 8.49810 | 117.87185 | 35872 ft | 491 kts | 215° |
| 2026-05-04 11:37 | 8.43292 | 117.82504 | 35865 ft | 492 kts | 215° |
| 2026-05-04 11:38 | 8.37700 | 117.78490 | 35868 ft | 491 kts | 215° |
| 2026-05-04 11:38 | 8.33047 | 117.75152 | 35867 ft | 491 kts | 215° |
| 2026-05-04 11:39 | 8.27446 | 117.71133 | 35868 ft | 491 kts | 215° |
| 2026-05-04 11:41 | 8.06976 | 117.56462 | 35866 ft | 492 kts | 215° |
| 2026-05-04 11:41 | 8.01408 | 117.52474 | 35866 ft | 492 kts | 215° |
| 2026-05-04 11:42 | 7.96745 | 117.49136 | 35868 ft | 491 kts | 215° |
| 2026-05-04 11:42 | 7.90218 | 117.44465 | 35868 ft | 492 kts | 215° |
| 2026-05-04 11:43 | 7.85539 | 117.41116 | 35874 ft | 492 kts | 215° |
| 2026-05-04 11:43 | 7.79974 | 117.37137 | 35878 ft | 491 kts | 215° |
| 2026-05-04 11:44 | 7.74363 | 117.33124 | 35881 ft | 492 kts | 215° |
| 2026-05-04 11:44 | 7.68797 | 117.29147 | 35883 ft | 492 kts | 215° |
| 2026-05-04 11:45 | 7.63160 | 117.25155 | 35882 ft | 491 kts | 215° |
| 2026-05-04 11:45 | 7.57563 | 117.21203 | 35882 ft | 492 kts | 215° |
| 2026-05-04 11:46 | 7.50995 | 117.16563 | 35884 ft | 491 kts | 215° |
| 2026-05-04 11:46 | 7.45390 | 117.12605 | 35885 ft | 492 kts | 215° |
| 2026-05-04 11:47 | 7.39764 | 117.08633 | 35882 ft | 492 kts | 215° |
| 2026-05-04 11:47 | 7.34156 | 117.04675 | 35880 ft | 493 kts | 215° |
| 2026-05-04 11:48 | 7.28553 | 117.00721 | 35882 ft | 491 kts | 215° |
| 2026-05-04 11:48 | 7.22947 | 116.96767 | 35883 ft | 491 kts | 215° |
| 2026-05-04 11:49 | 7.17352 | 116.92821 | 35876 ft | 490 kts | 215° |
| 2026-05-04 11:49 | 7.11728 | 116.88856 | 35870 ft | 491 kts | 215° |
| 2026-05-04 11:50 | 7.06133 | 116.84913 | 35870 ft | 491 kts | 215° |
| 2026-05-04 11:50 | 7.01443 | 116.81609 | 35871 ft | 491 kts | 215° |
| 2026-05-04 11:51 | 6.95855 | 116.77672 | 35876 ft | 491 kts | 215° |
| 2026-05-04 11:51 | 6.90254 | 116.73728 | 35879 ft | 491 kts | 215° |
| 2026-05-04 11:52 | 6.84652 | 116.69785 | 35883 ft | 491 kts | 215° |
| 2026-05-04 11:52 | 6.79030 | 116.65827 | 35881 ft | 490 kts | 215° |
| 2026-05-04 11:53 | 6.73421 | 116.61881 | 35880 ft | 491 kts | 215° |
| 2026-05-04 11:53 | 6.67820 | 116.57941 | 35883 ft | 491 kts | 215° |
| 2026-05-04 11:55 | 6.45369 | 116.42178 | 35886 ft | 490 kts | 215° |
| 2026-05-04 11:56 | 6.39733 | 116.38228 | 35900 ft | 490 kts | 215° |
| 2026-05-04 11:56 | 6.34133 | 116.34303 | 35904 ft | 490 kts | 214° |
| 2026-05-04 11:57 | 6.28518 | 116.30369 | 35911 ft | 490 kts | 214° |
| 2026-05-04 11:57 | 6.21974 | 116.25784 | 35908 ft | 491 kts | 214° |
| 2026-05-04 11:58 | 6.17298 | 116.22510 | 35904 ft | 489 kts | 214° |
| 2026-05-04 11:58 | 6.11680 | 116.18577 | 35911 ft | 488 kts | 214° |
| 2026-05-04 11:59 | 6.06089 | 116.14664 | 35909 ft | 488 kts | 214° |
| 2026-05-04 11:59 | 6.00516 | 116.10764 | 35905 ft | 488 kts | 214° |
| 2026-05-04 12:00 | 5.94932 | 116.06858 | 35904 ft | 489 kts | 214° |
| 2026-05-04 12:00 | 5.89308 | 116.02923 | 35904 ft | 489 kts | 215° |
| 2026-05-04 12:01 | 5.83892 | 115.98729 | 35896 ft | 489 kts | 218° |
| 2026-05-04 12:02 | 5.64228 | 115.83324 | 35918 ft | 488 kts | 218° |
| 2026-05-04 12:03 | 5.58827 | 115.79111 | 35919 ft | 488 kts | 217° |
| 2026-05-04 12:03 | 5.53472 | 115.74937 | 35911 ft | 488 kts | 218° |
| 2026-05-04 12:04 | 5.48099 | 115.70751 | 35905 ft | 488 kts | 218° |
| 2026-05-04 12:04 | 5.42694 | 115.66542 | 35917 ft | 488 kts | 217° |
| 2026-05-04 12:05 | 5.37339 | 115.62372 | 35915 ft | 488 kts | 217° |
| 2026-05-04 12:05 | 5.32860 | 115.58840 | 35917 ft | 489 kts | 218° |
| 2026-05-04 12:06 | 5.27546 | 115.54626 | 35913 ft | 489 kts | 218° |
| 2026-05-04 12:06 | 5.21295 | 115.49673 | 35904 ft | 489 kts | 218° |
| 2026-05-04 12:07 | 5.15935 | 115.45428 | 35904 ft | 489 kts | 218° |
| 2026-05-04 12:07 | 5.11479 | 115.41901 | 35906 ft | 489 kts | 218° |
| 2026-05-04 12:08 | 5.06105 | 115.37649 | 35905 ft | 490 kts | 218° |
| 2026-05-04 12:08 | 5.00724 | 115.33391 | 35900 ft | 490 kts | 218° |
| 2026-05-04 12:09 | 4.95369 | 115.29156 | 35903 ft | 491 kts | 218° |
| 2026-05-04 12:09 | 4.89997 | 115.24908 | 35903 ft | 490 kts | 218° |
| 2026-05-04 12:10 | 4.83728 | 115.19943 | 35913 ft | 490 kts | 218° |
| 2026-05-04 12:10 | 4.78430 | 115.15648 | 35908 ft | 490 kts | 218° |
| 2026-05-04 12:11 | 4.73995 | 115.12050 | 35913 ft | 489 kts | 218° |
| 2026-05-04 12:11 | 4.68711 | 115.07767 | 35918 ft | 489 kts | 218° |
| 2026-05-04 12:12 | 4.63398 | 115.03464 | 35930 ft | 490 kts | 218° |
| 2026-05-04 12:12 | 4.58084 | 114.99162 | 35935 ft | 490 kts | 218° |
| 2026-05-04 12:14 | 4.36646 | 114.82166 | 35927 ft | 490 kts | 216° |
| 2026-05-04 12:15 | 4.30223 | 114.77350 | 35921 ft | 492 kts | 216° |
| 2026-05-04 12:15 | 4.25679 | 114.73937 | 35914 ft | 492 kts | 217° |
| 2026-05-04 12:16 | 4.20178 | 114.69800 | 35924 ft | 492 kts | 216° |
| 2026-05-04 12:16 | 4.14677 | 114.65662 | 35923 ft | 491 kts | 217° |
| 2026-05-04 12:17 | 4.08306 | 114.60868 | 35908 ft | 491 kts | 216° |
| 2026-05-04 12:17 | 4.03733 | 114.57426 | 35912 ft | 490 kts | 217° |
| 2026-05-04 12:18 | 3.98273 | 114.53319 | 35909 ft | 491 kts | 217° |
| 2026-05-04 12:18 | 3.92828 | 114.49222 | 35930 ft | 491 kts | 217° |
| 2026-05-04 12:19 | 3.86528 | 114.44263 | 35935 ft | 493 kts | 218° |
| 2026-05-04 12:19 | 3.82016 | 114.40683 | 35948 ft | 493 kts | 218° |
| 2026-05-04 12:20 | 3.76608 | 114.36400 | 35933 ft | 494 kts | 218° |
| 2026-05-04 12:20 | 3.70314 | 114.31419 | 35921 ft | 494 kts | 218° |
| 2026-05-04 12:21 | 3.65791 | 114.27844 | 35918 ft | 493 kts | 218° |
| 2026-05-04 12:21 | 3.59514 | 114.22883 | 35921 ft | 494 kts | 218° |
| 2026-05-04 12:22 | 3.54989 | 114.19307 | 35920 ft | 495 kts | 218° |
| 2026-05-04 12:22 | 3.48678 | 114.14322 | 35920 ft | 495 kts | 218° |
| 2026-05-04 12:23 | 3.44167 | 114.10760 | 35933 ft | 495 kts | 218° |
| 2026-05-04 12:23 | 3.37821 | 114.05749 | 35942 ft | 495 kts | 218° |
| 2026-05-04 12:24 | 3.33307 | 114.02185 | 35936 ft | 494 kts | 218° |
| 2026-05-04 12:24 | 3.27893 | 113.97911 | 35931 ft | 496 kts | 218° |
| 2026-05-04 12:25 | 3.22468 | 113.93630 | 35937 ft | 496 kts | 218° |
| 2026-05-04 12:25 | 3.17012 | 113.89324 | 35941 ft | 496 kts | 218° |
| 2026-05-04 12:26 | 3.11598 | 113.85052 | 35949 ft | 494 kts | 218° |
| 2026-05-04 12:26 | 3.06171 | 113.80771 | 35959 ft | 494 kts | 218° |
| 2026-05-04 12:27 | 3.00770 | 113.76511 | 35973 ft | 494 kts | 218° |
| 2026-05-04 12:27 | 2.94441 | 113.71519 | 35966 ft | 494 kts | 218° |
| 2026-05-04 12:28 | 2.89013 | 113.67238 | 35955 ft | 495 kts | 218° |
| 2026-05-04 12:28 | 2.84461 | 113.63649 | 35951 ft | 494 kts | 218° |
| 2026-05-04 12:29 | 2.78163 | 113.58684 | 35957 ft | 493 kts | 218° |
| 2026-05-04 12:29 | 2.72761 | 113.54430 | 35967 ft | 492 kts | 218° |
| 2026-05-04 12:30 | 2.68282 | 113.50912 | 35962 ft | 493 kts | 218° |
| 2026-05-04 12:30 | 2.62868 | 113.46658 | 35949 ft | 492 kts | 218° |
| 2026-05-04 12:31 | 2.57457 | 113.42407 | 35940 ft | 492 kts | 218° |
| 2026-05-04 12:31 | 2.51162 | 113.37462 | 35927 ft | 493 kts | 218° |
| 2026-05-04 12:32 | 2.43061 | 113.31098 | 35922 ft | 491 kts | 218° |
| 2026-05-04 12:33 | 2.37662 | 113.26859 | 35922 ft | 492 kts | 218° |
| 2026-05-04 12:33 | 2.32275 | 113.22627 | 35918 ft | 491 kts | 218° |
| 2026-05-04 12:34 | 2.26866 | 113.18380 | 35918 ft | 490 kts | 218° |
| 2026-05-04 12:34 | 2.21466 | 113.14140 | 35919 ft | 492 kts | 218° |
| 2026-05-04 12:35 | 2.16983 | 113.10620 | 35910 ft | 490 kts | 218° |
| 2026-05-04 12:35 | 2.11612 | 113.06404 | 35904 ft | 490 kts | 218° |
| 2026-05-04 12:36 | 2.06221 | 113.02173 | 35900 ft | 490 kts | 218° |
| 2026-05-04 12:36 | 1.99952 | 112.97252 | 35899 ft | 490 kts | 218° |
| 2026-05-04 12:37 | 1.95454 | 112.93722 | 35900 ft | 490 kts | 218° |
| 2026-05-04 12:37 | 1.89172 | 112.88792 | 35903 ft | 491 kts | 218° |
| 2026-05-04 12:38 | 1.83815 | 112.84588 | 35905 ft | 491 kts | 218° |
| 2026-05-04 12:38 | 1.78430 | 112.80363 | 35908 ft | 490 kts | 218° |
| 2026-05-04 12:39 | 1.73892 | 112.76803 | 35911 ft | 490 kts | 218° |
| 2026-05-04 12:39 | 1.68511 | 112.72581 | 35913 ft | 490 kts | 218° |
| 2026-05-04 12:40 | 1.62243 | 112.67664 | 35921 ft | 490 kts | 218° |
| 2026-05-04 12:40 | 1.57793 | 112.64173 | 35929 ft | 491 kts | 218° |
| 2026-05-04 12:41 | 1.51473 | 112.59250 | 35942 ft | 491 kts | 218° |
| 2026-05-04 12:41 | 1.46967 | 112.55753 | 35950 ft | 490 kts | 218° |
| 2026-05-04 12:42 | 1.40680 | 112.50873 | 35944 ft | 491 kts | 218° |
| 2026-05-04 12:42 | 1.36180 | 112.47380 | 35939 ft | 491 kts | 218° |
| 2026-05-04 12:43 | 1.30757 | 112.43170 | 35934 ft | 491 kts | 218° |
| 2026-05-04 12:43 | 1.25358 | 112.38979 | 35929 ft | 491 kts | 218° |
| 2026-05-04 12:44 | 1.19043 | 112.34077 | 35925 ft | 490 kts | 218° |
| 2026-05-04 12:44 | 1.14577 | 112.30610 | 35921 ft | 491 kts | 218° |
| 2026-05-04 12:45 | 1.09172 | 112.26414 | 35918 ft | 491 kts | 218° |
| 2026-05-04 12:45 | 1.03773 | 112.22223 | 35915 ft | 491 kts | 218° |
| 2026-05-04 12:46 | 0.97467 | 112.17329 | 35908 ft | 491 kts | 218° |
| 2026-05-04 12:46 | 0.92948 | 112.13821 | 35909 ft | 491 kts | 218° |
| 2026-05-04 12:47 | 0.87537 | 112.09622 | 35909 ft | 491 kts | 218° |
| 2026-05-04 12:47 | 0.82142 | 112.05434 | 35905 ft | 492 kts | 218° |
| 2026-05-04 12:48 | 0.75800 | 112.00513 | 35904 ft | 493 kts | 218° |
| 2026-05-04 12:48 | 0.71273 | 111.96999 | 35903 ft | 494 kts | 218° |
| 2026-05-04 12:49 | 0.64953 | 111.92095 | 35909 ft | 495 kts | 218° |
| 2026-05-04 12:49 | 0.60390 | 111.88554 | 35908 ft | 494 kts | 218° |
| 2026-05-04 12:50 | 0.54045 | 111.83631 | 35906 ft | 496 kts | 218° |
| 2026-05-04 12:50 | 0.49520 | 111.80119 | 35907 ft | 497 kts | 218° |
| 2026-05-04 12:51 | 0.44005 | 111.75840 | 35911 ft | 498 kts | 218° |
| 2026-05-04 12:51 | 0.38534 | 111.71596 | 35916 ft | 497 kts | 218° |
| 2026-05-04 12:52 | 0.32143 | 111.66636 | 35917 ft | 499 kts | 218° |
| 2026-05-04 12:52 | 0.27572 | 111.63090 | 35917 ft | 499 kts | 218° |
| 2026-05-04 12:53 | 0.22040 | 111.58797 | 35916 ft | 500 kts | 218° |
| 2026-05-04 12:53 | 0.16569 | 111.54553 | 35916 ft | 499 kts | 218° |
| 2026-05-04 12:54 | 0.11031 | 111.50256 | 35913 ft | 500 kts | 218° |
| 2026-05-04 12:54 | 0.05546 | 111.46001 | 35914 ft | 501 kts | 218° |
| 2026-05-04 12:55 | 0.00045 | 111.41732 | 35915 ft | 501 kts | 218° |
| 2026-05-04 12:55 | -0.05476 | 111.37449 | 35915 ft | 500 kts | 218° |
| 2026-05-04 12:56 | -0.10960 | 111.33194 | 35913 ft | 499 kts | 218° |
| 2026-05-04 12:56 | -0.17401 | 111.28196 | 35916 ft | 500 kts | 218° |
| 2026-05-04 12:57 | -0.21982 | 111.24641 | 35915 ft | 498 kts | 218° |
| 2026-05-04 12:57 | -0.27429 | 111.20416 | 35916 ft | 499 kts | 218° |
| 2026-05-04 12:58 | -0.33833 | 111.15447 | 35922 ft | 498 kts | 218° |
| 2026-05-04 12:58 | -0.39299 | 111.11204 | 35932 ft | 498 kts | 218° |
| 2026-05-04 12:59 | -0.44777 | 111.06934 | 35945 ft | 497 kts | 218° |
| 2026-05-04 12:59 | -0.50260 | 111.02658 | 35965 ft | 498 kts | 218° |
| 2026-05-04 13:00 | -0.54792 | 110.99124 | 35970 ft | 496 kts | 218° |
| 2026-05-04 13:00 | -0.60239 | 110.94877 | 35948 ft | 497 kts | 218° |
| 2026-05-04 13:01 | -0.65682 | 110.90632 | 35931 ft | 495 kts | 218° |
| 2026-05-04 13:01 | -0.71162 | 110.86359 | 35920 ft | 496 kts | 218° |
| 2026-05-04 13:02 | -0.77506 | 110.81413 | 35920 ft | 496 kts | 218° |
| 2026-05-04 13:02 | -0.82044 | 110.77875 | 35921 ft | 495 kts | 218° |
| 2026-05-04 13:03 | -0.87487 | 110.73630 | 35919 ft | 496 kts | 218° |
| 2026-05-04 13:03 | -0.93884 | 110.68641 | 35911 ft | 496 kts | 218° |
| 2026-05-04 13:04 | -0.98405 | 110.65115 | 35909 ft | 496 kts | 218° |
| 2026-05-04 13:04 | -1.03870 | 110.60853 | 35908 ft | 495 kts | 218° |
| 2026-05-04 13:05 | -1.09318 | 110.56604 | 35906 ft | 496 kts | 218° |
| 2026-05-04 13:05 | -1.15655 | 110.51661 | 35903 ft | 495 kts | 218° |
| 2026-05-04 13:06 | -1.21119 | 110.47399 | 35902 ft | 497 kts | 218° |
| 2026-05-04 13:06 | -1.25651 | 110.43864 | 35903 ft | 496 kts | 218° |
| 2026-05-04 13:07 | -1.31100 | 110.39632 | 35905 ft | 496 kts | 217° |
| 2026-05-04 13:07 | -1.37521 | 110.34761 | 35910 ft | 495 kts | 217° |
| 2026-05-04 13:08 | -1.42129 | 110.31265 | 35906 ft | 494 kts | 217° |
| 2026-05-04 13:08 | -1.47635 | 110.27084 | 35896 ft | 495 kts | 217° |
| 2026-05-04 13:09 | -1.54045 | 110.22216 | 35895 ft | 495 kts | 217° |
| 2026-05-04 13:09 | -1.58600 | 110.18755 | 35900 ft | 495 kts | 217° |
| 2026-05-04 13:10 | -1.65035 | 110.13865 | 35899 ft | 494 kts | 217° |
| 2026-05-04 13:10 | -1.69605 | 110.10379 | 35903 ft | 495 kts | 218° |
| 2026-05-04 13:11 | -1.75867 | 110.05313 | 35899 ft | 495 kts | 219° |
| 2026-05-04 13:11 | -1.80323 | 110.01700 | 35890 ft | 494 kts | 218° |
| 2026-05-04 13:12 | -1.86587 | 109.96629 | 35890 ft | 494 kts | 219° |
| 2026-05-04 13:12 | -1.91055 | 109.93015 | 35889 ft | 494 kts | 219° |
| 2026-05-04 13:13 | -1.97223 | 109.88030 | 35877 ft | 469 kts | 218° |
| 2026-05-04 13:13 | -1.98893 | 109.86681 | 35874 ft | 458 kts | 218° |
| 2026-05-04 13:13 | -2.02151 | 109.84049 | 35582 ft | 441 kts | 218° |
| 2026-05-04 13:13 | -2.03726 | 109.82777 | 35082 ft | 441 kts | 218° |
| 2026-05-04 13:14 | -2.06942 | 109.80180 | 33472 ft | 453 kts | 218° |
| 2026-05-04 13:14 | -2.08606 | 109.78837 | 32548 ft | 461 kts | 218° |
| 2026-05-04 13:14 | -2.11115 | 109.76811 | 31360 ft | 471 kts | 218° |
| 2026-05-04 13:14 | -2.14533 | 109.74047 | 30157 ft | 473 kts | 218° |
| 2026-05-04 13:15 | -2.16231 | 109.72675 | 29934 ft | 466 kts | 218° |
| 2026-05-04 13:15 | -2.21315 | 109.68565 | 29891 ft | 476 kts | 218° |
| 2026-05-04 13:16 | -2.26462 | 109.64402 | 29890 ft | 472 kts | 218° |
| 2026-05-04 13:16 | -2.32423 | 109.59583 | 29892 ft | 473 kts | 218° |
| 2026-05-04 13:17 | -2.36721 | 109.56108 | 29891 ft | 472 kts | 218° |
| 2026-05-04 13:17 | -2.42679 | 109.51291 | 29891 ft | 472 kts | 218° |
| 2026-05-04 13:18 | -2.46923 | 109.47860 | 29892 ft | 472 kts | 218° |
| 2026-05-04 13:18 | -2.52048 | 109.43716 | 29892 ft | 473 kts | 218° |
| 2026-05-04 13:19 | -2.57992 | 109.38908 | 29892 ft | 471 kts | 218° |
| 2026-05-04 13:19 | -2.62265 | 109.35452 | 29892 ft | 471 kts | 218° |
| 2026-05-04 13:20 | -2.68230 | 109.30627 | 29886 ft | 472 kts | 218° |
| 2026-05-04 13:20 | -2.72508 | 109.27166 | 29887 ft | 471 kts | 218° |
| 2026-05-04 13:21 | -2.78450 | 109.22358 | 29888 ft | 473 kts | 218° |
| 2026-05-04 13:21 | -2.82722 | 109.18901 | 29887 ft | 472 kts | 218° |
| 2026-05-04 13:22 | -2.87819 | 109.14777 | 29888 ft | 473 kts | 218° |
| 2026-05-04 13:22 | -2.93008 | 109.10658 | 29888 ft | 473 kts | 217° |
| 2026-05-04 13:23 | -2.99067 | 109.05942 | 29889 ft | 472 kts | 217° |
| 2026-05-04 13:23 | -3.04231 | 109.01918 | 29885 ft | 472 kts | 217° |
| 2026-05-04 13:24 | -3.09405 | 108.97881 | 29877 ft | 472 kts | 217° |
| 2026-05-04 13:24 | -3.14594 | 108.93832 | 29870 ft | 472 kts | 217° |
| 2026-05-04 13:25 | -3.21518 | 108.88425 | 29868 ft | 473 kts | 217° |
| 2026-05-04 13:25 | -3.27547 | 108.83717 | 29869 ft | 471 kts | 217° |
| 2026-05-04 13:26 | -3.32743 | 108.79658 | 29867 ft | 469 kts | 217° |
| 2026-05-04 13:26 | -3.37030 | 108.76308 | 29869 ft | 470 kts | 217° |
| 2026-05-04 13:27 | -3.42175 | 108.72289 | 29870 ft | 471 kts | 218° |
| 2026-05-04 13:27 | -3.47359 | 108.68237 | 29877 ft | 470 kts | 217° |
| 2026-05-04 13:28 | -3.52526 | 108.64199 | 29883 ft | 470 kts | 217° |
| 2026-05-04 13:28 | -3.57681 | 108.60169 | 29885 ft | 469 kts | 218° |
| 2026-05-04 13:29 | -3.62820 | 108.56151 | 29887 ft | 469 kts | 218° |
| 2026-05-04 13:29 | -3.67972 | 108.52123 | 29884 ft | 469 kts | 218° |
| 2026-05-04 13:30 | -3.73093 | 108.48118 | 29885 ft | 469 kts | 218° |
| 2026-05-04 13:30 | -3.78243 | 108.44089 | 29886 ft | 469 kts | 218° |
| 2026-05-04 13:31 | -3.84262 | 108.39381 | 29891 ft | 469 kts | 218° |
| 2026-05-04 13:31 | -3.89440 | 108.35329 | 29892 ft | 469 kts | 218° |
| 2026-05-04 13:32 | -3.94570 | 108.31315 | 29888 ft | 468 kts | 218° |
| 2026-05-04 13:32 | -3.98835 | 108.27976 | 29888 ft | 468 kts | 218° |
| 2026-05-04 13:33 | -4.03952 | 108.23970 | 29875 ft | 450 kts | 218° |
| 2026-05-04 13:33 | -4.06371 | 108.22078 | 29858 ft | 432 kts | 218° |
| 2026-05-04 13:33 | -4.09475 | 108.19649 | 29498 ft | 419 kts | 218° |
| 2026-05-04 13:34 | -4.11754 | 108.17865 | 28715 ft | 423 kts | 217° |
| 2026-05-04 13:34 | -4.14218 | 108.16169 | 27601 ft | 434 kts | 208° |
| 2026-05-04 13:34 | -4.16892 | 108.14729 | 26621 ft | 441 kts | 206° |
| 2026-05-04 13:34 | -4.18716 | 108.13776 | 26178 ft | 440 kts | 206° |
| 2026-05-04 13:35 | -4.21429 | 108.12357 | 25685 ft | 434 kts | 206° |
| 2026-05-04 13:35 | -4.27630 | 108.09106 | 24192 ft | 431 kts | 206° |
| 2026-05-04 13:35 | -4.29397 | 108.08179 | 23958 ft | 427 kts | 206° |
| 2026-05-04 13:36 | -4.32025 | 108.06800 | 23896 ft | 434 kts | 206° |
| 2026-05-04 13:36 | -4.34655 | 108.05417 | 23880 ft | 417 kts | 206° |
| 2026-05-04 13:36 | -4.37206 | 108.04075 | 23883 ft | 398 kts | 206° |
| 2026-05-04 13:36 | -4.40373 | 108.02411 | 23880 ft | 375 kts | 206° |
| 2026-05-04 13:37 | -4.42632 | 108.01224 | 23882 ft | 362 kts | 206° |
| 2026-05-04 13:37 | -4.44898 | 108.00034 | 23890 ft | 366 kts | 206° |
| 2026-05-04 13:37 | -4.46390 | 107.99251 | 23888 ft | 366 kts | 206° |
| 2026-05-04 13:37 | -4.48654 | 107.98061 | 23887 ft | 366 kts | 206° |
| 2026-05-04 13:38 | -4.50912 | 107.96873 | 23889 ft | 365 kts | 206° |
| 2026-05-04 13:38 | -4.53172 | 107.95684 | 23889 ft | 365 kts | 206° |
| 2026-05-04 13:38 | -4.56162 | 107.94111 | 23888 ft | 365 kts | 206° |
| 2026-05-04 13:38 | -4.57675 | 107.93315 | 23887 ft | 365 kts | 206° |
| 2026-05-04 13:39 | -4.60677 | 107.91735 | 23888 ft | 365 kts | 206° |
| 2026-05-04 13:39 | -4.62210 | 107.90928 | 23889 ft | 367 kts | 206° |
| 2026-05-04 13:39 | -4.65207 | 107.89350 | 23888 ft | 367 kts | 206° |
| 2026-05-04 13:39 | -4.67482 | 107.88152 | 23886 ft | 366 kts | 206° |
| 2026-05-04 13:40 | -4.69725 | 107.86971 | 23884 ft | 366 kts | 206° |
| 2026-05-04 13:40 | -4.71231 | 107.86179 | 23884 ft | 366 kts | 206° |
| 2026-05-04 13:40 | -4.73511 | 107.84978 | 23881 ft | 366 kts | 206° |
| 2026-05-04 13:40 | -4.75753 | 107.83797 | 23878 ft | 366 kts | 206° |
| 2026-05-04 13:41 | -4.78015 | 107.82606 | 23874 ft | 366 kts | 206° |
| 2026-05-04 13:41 | -4.81054 | 107.81005 | 23871 ft | 366 kts | 206° |
| 2026-05-04 13:41 | -4.82568 | 107.80208 | 23868 ft | 366 kts | 206° |
| 2026-05-04 13:42 | -4.87842 | 107.77429 | 23869 ft | 366 kts | 206° |
| 2026-05-04 13:42 | -4.90109 | 107.76234 | 23869 ft | 366 kts | 206° |
| 2026-05-04 13:42 | -4.92362 | 107.75047 | 23869 ft | 366 kts | 206° |
| 2026-05-04 13:42 | -4.94616 | 107.73859 | 23870 ft | 366 kts | 206° |
| 2026-05-04 13:43 | -4.96127 | 107.73064 | 23868 ft | 365 kts | 206° |
| 2026-05-04 13:43 | -4.98377 | 107.71877 | 23870 ft | 365 kts | 206° |
| 2026-05-04 13:43 | -5.01411 | 107.70279 | 23870 ft | 365 kts | 206° |
| 2026-05-04 13:43 | -5.03637 | 107.69105 | 23871 ft | 365 kts | 206° |
| 2026-05-04 13:44 | -5.05142 | 107.68311 | 23870 ft | 365 kts | 206° |
| 2026-05-04 13:44 | -5.07397 | 107.67123 | 23871 ft | 364 kts | 206° |
| 2026-05-04 13:44 | -5.09642 | 107.65939 | 23872 ft | 365 kts | 206° |
| 2026-05-04 13:44 | -5.12670 | 107.64342 | 23871 ft | 366 kts | 206° |
| 2026-05-04 13:45 | -5.14154 | 107.63559 | 23872 ft | 366 kts | 206° |
| 2026-05-04 13:45 | -5.16997 | 107.61633 | 23899 ft | 366 kts | 220° |
| 2026-05-04 13:45 | -5.18219 | 107.60465 | 23831 ft | 364 kts | 227° |
| 2026-05-04 13:45 | -5.20236 | 107.57752 | 23478 ft | 368 kts | 240° |
| 2026-05-04 13:46 | -5.21368 | 107.55435 | 23231 ft | 369 kts | 246° |
| 2026-05-04 13:46 | -5.22405 | 107.53086 | 22986 ft | 369 kts | 246° |
| 2026-05-04 13:46 | -5.23435 | 107.50705 | 22791 ft | 368 kts | 247° |
| 2026-05-04 13:46 | -5.24090 | 107.49146 | 22666 ft | 367 kts | 248° |
| 2026-05-04 13:47 | -5.25069 | 107.46768 | 22356 ft | 371 kts | 248° |
| 2026-05-04 13:47 | -5.26038 | 107.44373 | 21901 ft | 371 kts | 248° |
| 2026-05-04 13:47 | -5.27001 | 107.41970 | 21442 ft | 369 kts | 248° |
| 2026-05-04 13:47 | -5.27952 | 107.39580 | 20986 ft | 368 kts | 249° |
| 2026-05-04 13:48 | -5.29199 | 107.36429 | 20379 ft | 366 kts | 249° |
| 2026-05-04 13:48 | -5.29835 | 107.34819 | 20068 ft | 365 kts | 249° |
| 2026-05-04 13:48 | -5.30766 | 107.32459 | 19602 ft | 364 kts | 249° |
| 2026-05-04 13:48 | -5.31687 | 107.30123 | 19140 ft | 363 kts | 249° |
| 2026-05-04 13:49 | -5.32925 | 107.26981 | 18517 ft | 362 kts | 249° |
| 2026-05-04 13:49 | -5.33542 | 107.25414 | 18205 ft | 361 kts | 249° |
| 2026-05-04 13:49 | -5.34750 | 107.22343 | 17901 ft | 347 kts | 249° |
| 2026-05-04 13:49 | -5.35325 | 107.20881 | 17887 ft | 339 kts | 249° |
| 2026-05-04 13:50 | -5.36469 | 107.17954 | 17888 ft | 341 kts | 249° |
| 2026-05-04 13:50 | -5.37343 | 107.15713 | 17889 ft | 341 kts | 249° |
| 2026-05-04 13:50 | -5.37916 | 107.14243 | 17804 ft | 344 kts | 249° |
| 2026-05-04 13:50 | -5.39081 | 107.11261 | 17202 ft | 346 kts | 249° |
| 2026-05-04 13:51 | -5.39672 | 107.09747 | 16889 ft | 345 kts | 249° |
| 2026-05-04 13:51 | -5.40542 | 107.07521 | 16430 ft | 345 kts | 249° |
| 2026-05-04 13:51 | -5.41417 | 107.05280 | 15961 ft | 345 kts | 249° |
| 2026-05-04 13:51 | -5.42582 | 107.02296 | 15273 ft | 342 kts | 249° |
| 2026-05-04 13:52 | -5.44004 | 106.98656 | 14557 ft | 334 kts | 249° |
| 2026-05-04 13:52 | -5.44841 | 106.96514 | 14098 ft | 334 kts | 249° |
| 2026-05-04 13:52 | -5.45997 | 106.93610 | 13451 ft | 334 kts | 244° |
| 2026-05-04 13:53 | -5.47349 | 106.91759 | 12913 ft | 333 kts | 221° |
| 2026-05-04 13:53 | -5.49347 | 106.90546 | 12326 ft | 333 kts | 198° |
| 2026-05-04 13:53 | -5.50838 | 106.90215 | 12035 ft | 328 kts | 186° |
| 2026-05-04 13:54 | -5.55946 | 106.90019 | 11562 ft | 306 kts | 180° |
| 2026-05-04 13:54 | -5.57373 | 106.90000 | 11253 ft | 307 kts | 180° |
| 2026-05-04 13:54 | -5.62371 | 106.89931 | 10162 ft | 310 kts | 180° |
| 2026-05-04 13:55 | -5.63817 | 106.89909 | 9845 ft | 310 kts | 180° |
| 2026-05-04 13:55 | -5.68892 | 106.89835 | 8733 ft | 311 kts | 180° |
| 2026-05-04 13:55 | -5.71065 | 106.89802 | 8258 ft | 311 kts | 180° |
| 2026-05-04 13:56 | -5.73238 | 106.89766 | 7784 ft | 311 kts | 180° |
| 2026-05-04 13:56 | -5.74661 | 106.89735 | 7471 ft | 311 kts | 180° |
| 2026-05-04 13:56 | -5.79713 | 106.89624 | 6360 ft | 310 kts | 180° |
| 2026-05-04 13:57 | -5.81881 | 106.89578 | 5882 ft | 309 kts | 180° |
| 2026-05-04 13:57 | -5.84021 | 106.89532 | 5409 ft | 308 kts | 180° |
| 2026-05-04 13:58 | -5.90551 | 106.89394 | 3651 ft | 316 kts | 180° |
| 2026-05-04 13:58 | -5.94911 | 106.89180 | 2994 ft | 302 kts | 193° |
| 2026-05-04 13:58 | -5.96783 | 106.88349 | 2909 ft | 291 kts | 210° |
| 2026-05-04 13:59 | -5.98412 | 106.87185 | 2647 ft | 278 kts | 217° |
| 2026-05-04 13:59 | -5.99876 | 106.85983 | 2413 ft | 263 kts | 219° |
| 2026-05-04 13:59 | -6.02082 | 106.84087 | 2048 ft | 239 kts | 220° |
| 2026-05-04 14:00 | -6.03659 | 106.82654 | 2000 ft | 217 kts | 229° |
| 2026-05-04 14:00 | -6.05035 | 106.80256 | 1991 ft | 189 kts | 249° |
| 2026-05-04 14:00 | -6.05360 | 106.79440 | 1989 ft | 188 kts | 250° |
| 2026-05-04 14:01 | -6.06006 | 106.77824 | 1988 ft | 182 kts | 249° |
| 2026-05-04 14:01 | -6.06465 | 106.76691 | 1987 ft | 166 kts | 249° |
| 2026-05-04 14:01 | -6.07167 | 106.74953 | 1683 ft | 157 kts | 249° |
| 2026-05-04 14:02 | -6.07574 | 106.73940 | 1487 ft | 155 kts | 248° |
| 2026-05-04 14:02 | -6.08112 | 106.72605 | 1223 ft | 153 kts | 248° |
| 2026-05-04 14:02 | -6.08379 | 106.71941 | 1088 ft | 152 kts | 248° |
| 2026-05-04 14:02 | -6.08774 | 106.70959 | 885 ft | 150 kts | 248° |
| 2026-05-04 14:03 | -6.09164 | 106.69991 | 690 ft | 148 kts | 248° |
| 2026-05-04 14:03 | -6.09674 | 106.68720 | 436 ft | 147 kts | 249° |
| 2026-05-04 14:03 | -6.09919 | 106.68080 | 317 ft | 147 kts | 248° |
| 2026-05-04 14:03 | -6.10447 | 106.66807 | 75 ft | 148 kts | 247° |
| 2026-05-04 14:04 | -6.11048 | 106.65258 | 53 ft | 84 kts | 247° |
| 2026-05-04 14:04 | -6.11218 | 106.64845 | 54 ft | 42 kts | 249° |
| 2026-05-04 14:04 | -6.11279 | 106.64698 | 53 ft | 27 kts | 243° |
| 2026-05-04 14:05 | -6.11517 | 106.64435 | 54 ft | 11 kts | 205° |
| 2026-05-04 14:05 | -6.11600 | 106.64429 | 53 ft | 13 kts | 166° |
| 2026-05-04 14:05 | -6.11660 | 106.64450 | 53 ft | 14 kts | 159° |
| 2026-05-04 14:06 | -6.11753 | 106.64486 | 53 ft | 13 kts | 159° |
| 2026-05-04 14:06 | -6.11870 | 106.64472 | 53 ft | 14 kts | 233° |
| 2026-05-04 14:06 | -6.11939 | 106.64391 | 53 ft | 16 kts | 215° |
| 2026-05-04 14:06 | -6.12042 | 106.64379 | 53 ft | 15 kts | 153° |
| 2026-05-04 14:07 | -6.12069 | 106.64444 | 53 ft | 16 kts | 79° |
| 2026-05-04 14:07 | -6.12013 | 106.64593 | 53 ft | 18 kts | 68° |
| 2026-05-04 14:07 | -6.11966 | 106.64713 | 53 ft | 18 kts | 69° |
| 2026-05-04 14:07 | -6.11917 | 106.64840 | 53 ft | 19 kts | 69° |
| 2026-05-04 14:08 | -6.11863 | 106.64970 | 53 ft | 20 kts | 68° |
| 2026-05-04 14:08 | -6.11827 | 106.65060 | 53 ft | 20 kts | 68° |
| 2026-05-04 14:08 | -6.11773 | 106.65198 | 54 ft | 21 kts | 67° |
| 2026-05-04 14:08 | -6.11698 | 106.65377 | 53 ft | 20 kts | 68° |
| 2026-05-04 14:09 | -6.11671 | 106.65573 | 53 ft | 15 kts | 123° |
| 2026-05-04 14:09 | -6.11668 | 106.65707 | 53 ft | 15 kts | 66° |
| 2026-05-04 14:10 | -6.11591 | 106.65889 | 53 ft | 9 kts | 70° |
| 2026-05-04 14:10 | -6.11620 | 106.65943 | 53 ft | 11 kts | 148° |
| 2026-05-04 14:10 | -6.11694 | 106.65979 | 53 ft | 7 kts | 156° |
| 2026-05-04 14:10 | -6.11733 | 106.65996 | 53 ft | 9 kts | 156° |
| 2026-05-04 14:11 | -6.11796 | 106.66064 | 53 ft | 11 kts | 84° |
| 2026-05-04 14:11 | -6.11762 | 106.66184 | 53 ft | 5 kts | 109° |
| 2026-05-04 14:11 | -6.11780 | 106.66202 | 53 ft | 6 kts | 153° |
| 2026-05-04 14:12 | -6.11836 | 106.66225 | 53 ft | 6 kts | 156° |
| 2026-05-04 14:12 | -6.11849 | 106.66230 | 53 ft | 0 kts | 156° |